Terminal Aerodrome Forecast
Issued by NWS

Home | Current Version | Previous Version | Text Only | Print | Product List | Glossary On
Versions: 1 2 3 4 5 6 7 8 9 10 11 12 13 14 15 16 17
345
FTUS45 KABQ 240520
TAFGUP
TAF
KGUP 240520Z 2406/2506 23010KT P6SM SCT025 BKN050
      TEMPO 2406/2408 BKN020
     FM240900 24019KT P6SM SCT025 BKN050
     FM241300 26018G28KT P6SM SKC
     FM250200 VRB04KT P6SM SKC=

USA.gov is the U.S. government's official web portal to all federal, state and local government web resources and services.